sensor_id;sensor_type;location;lat;lon;timestamp;pressure;altitude;pressure_sealevel;temperature;humidity
9307;BME280;4691;47.612;7.610;2023-04-24T00:01:52;97880.84;;;11.96;100.00
9307;BME280;4691;47.612;7.610;2023-04-24T00:04:17;97883.63;;;12.04;100.00
9307;BME280;4691;47.612;7.610;2023-04-24T00:06:43;97891.97;;;12.01;100.00
9307;BME280;4691;47.612;7.610;2023-04-24T00:09:09;97899.00;;;12.02;100.00
9307;BME280;4691;47.612;7.610;2023-04-24T00:11:37;97899.78;;;12.12;100.00
9307;BME280;4691;47.612;7.610;2023-04-24T00:14:02;97913.28;;;12.20;100.00
9307;BME280;4691;47.612;7.610;2023-04-24T00:16:28;97925.69;;;12.39;100.00
9307;BME280;4691;47.612;7.610;2023-04-24T00:18:54;97920.25;;;12.49;100.00
9307;BME280;4691;47.612;7.610;2023-04-24T00:21:19;97926.75;;;12.47;100.00
9307;BME280;4691;47.612;7.610;2023-04-24T00:23:45;97914.97;;;12.39;100.00
9307;BME280;4691;47.612;7.610;2023-04-24T00:26:11;97918.47;;;12.40;100.00
9307;BME280;4691;47.612;7.610;2023-04-24T00:28:36;97916.13;;;12.37;100.00
9307;BME280;4691;47.612;7.610;2023-04-24T00:31:01;97926.91;;;12.45;100.00
9307;BME280;4691;47.612;7.610;2023-04-24T00:33:27;97913.13;;;12.40;100.00
9307;BME280;4691;47.612;7.610;2023-04-24T00:35:52;97913.44;;;12.37;100.00
9307;BME280;4691;47.612;7.610;2023-04-24T00:38:18;97921.09;;;12.32;100.00
9307;BME280;4691;47.612;7.610;2023-04-24T00:40:43;97907.31;;;12.27;100.00
9307;BME280;4691;47.612;7.610;2023-04-24T00:43:08;97898.94;;;12.30;100.00
9307;BME280;4691;47.612;7.610;2023-04-24T00:45:33;97903.78;;;12.26;100.00
9307;BME280;4691;47.612;7.610;2023-04-24T00:48:00;97914.63;;;12.25;100.00
9307;BME280;4691;47.612;7.610;2023-04-24T00:50:25;97912.66;;;12.27;100.00
9307;BME280;4691;47.612;7.610;2023-04-24T00:52:51;97911.44;;;12.39;100.00
9307;BME280;4691;47.612;7.610;2023-04-24T00:55:17;97922.69;;;12.42;100.00
9307;BME280;4691;47.612;7.610;2023-04-24T00:57:43;97925.53;;;12.41;100.00
9307;BME280;4691;47.612;7.610;2023-04-24T01:00:09;97939.34;;;12.46;100.00
9307;BME280;4691;47.612;7.610;2023-04-24T01:02:39;97935.97;;;12.44;100.00
9307;BME280;4691;47.612;7.610;2023-04-24T01:05:06;97932.06;;;12.38;100.00
9307;BME280;4691;47.612;7.610;2023-04-24T01:07:33;97933.88;;;12.38;100.00
9307;BME280;4691;47.612;7.610;2023-04-24T01:09:58;97932.06;;;12.38;100.00
9307;BME280;4691;47.612;7.610;2023-04-24T01:12:24;97930.03;;;12.40;100.00
9307;BME280;4691;47.612;7.610;2023-04-24T01:14:49;97919.81;;;12.36;100.00
9307;BME280;4691;47.612;7.610;2023-04-24T01:17:15;97927.84;;;12.36;100.00
9307;BME280;4691;47.612;7.610;2023-04-24T01:19:40;97930.28;;;12.47;100.00
9307;BME280;4691;47.612;7.610;2023-04-24T01:22:24;97922.16;;;12.39;100.00
9307;BME280;4691;47.612;7.610;2023-04-24T01:24:49;97917.13;;;12.36;100.00
9307;BME280;4691;47.612;7.610;2023-04-24T01:27:15;97925.31;;;12.34;100.00
9307;BME280;4691;47.612;7.610;2023-04-24T01:29:40;97920.78;;;12.35;100.00
9307;BME280;4691;47.612;7.610;2023-04-24T01:32:06;97916.41;;;12.34;100.00
9307;BME280;4691;47.612;7.610;2023-04-24T01:34:31;97910.69;;;12.29;100.00
9307;BME280;4691;47.612;7.610;2023-04-24T01:36:57;97908.97;;;12.28;100.00
9307;BME280;4691;47.612;7.610;2023-04-24T01:39:23;97907.00;;;12.30;100.00
9307;BME280;4691;47.612;7.610;2023-04-24T01:41:51;97910.59;;;12.38;100.00
9307;BME280;4691;47.612;7.610;2023-04-24T01:44:17;97919.47;;;12.39;100.00
9307;BME280;4691;47.612;7.610;2023-04-24T01:46:42;97915.50;;;12.43;100.00
9307;BME280;4691;47.612;7.610;2023-04-24T01:49:08;97935.97;;;12.44;100.00
9307;BME280;4691;47.612;7.610;2023-04-24T01:51:33;97928.22;;;12.41;100.00
9307;BME280;4691;47.612;7.610;2023-04-24T01:53:58;97933.28;;;12.44;100.00
9307;BME280;4691;47.612;7.610;2023-04-24T01:56:24;97936.94;;;12.43;100.00
9307;BME280;4691;47.612;7.610;2023-04-24T01:58:51;97932.72;;;12.40;100.00
9307;BME280;4691;47.612;7.610;2023-04-24T02:01:18;97924.09;;;12.47;100.00
9307;BME280;4691;47.612;7.610;2023-04-24T02:03:44;97927.34;;;12.40;100.00
9307;BME280;4691;47.612;7.610;2023-04-24T02:06:09;97918.16;;;12.43;100.00
9307;BME280;4691;47.612;7.610;2023-04-24T02:08:34;97920.47;;;12.38;100.00
9307;BME280;4691;47.612;7.610;2023-04-24T02:11:00;97916.13;;;12.37;100.00
9307;BME280;4691;47.612;7.610;2023-04-24T02:13:27;97893.97;;;12.17;100.00
9307;BME280;4691;47.612;7.610;2023-04-24T02:15:52;97875.75;;;12.03;100.00
9307;BME280;4691;47.612;7.610;2023-04-24T02:19:31;97842.34;;;11.97;100.00
9307;BME280;4691;47.612;7.610;2023-04-24T02:21:56;97840.16;;;11.92;100.00
9307;BME280;4691;47.612;7.610;2023-04-24T02:24:22;97838.69;;;11.98;100.00
9307;BME280;4691;47.612;7.610;2023-04-24T02:26:47;97839.22;;;12.02;100.00
9307;BME280;4691;47.612;7.610;2023-04-24T02:29:12;97855.84;;;12.05;100.00
9307;BME280;4691;47.612;7.610;2023-04-24T02:31:37;97852.47;;;12.03;100.00
9307;BME280;4691;47.612;7.610;2023-04-24T02:34:03;97855.84;;;12.05;100.00
9307;BME280;4691;47.612;7.610;2023-04-24T02:36:28;97841.59;;;12.05;100.00
9307;BME280;4691;47.612;7.610;2023-04-24T02:38:53;97841.44;;;12.06;100.00
9307;BME280;4691;47.612;7.610;2023-04-24T02:41:19;97847.88;;;12.13;100.00
9307;BME280;4691;47.612;7.610;2023-04-24T02:43:44;97849.25;;;12.17;100.00
9307;BME280;4691;47.612;7.610;2023-04-24T02:46:10;97856.31;;;12.18;100.00
9307;BME280;4691;47.612;7.610;2023-04-24T02:48:35;97863.72;;;12.25;100.00
9307;BME280;4691;47.612;7.610;2023-04-24T02:51:00;97855.59;;;12.16;100.00
9307;BME280;4691;47.612;7.610;2023-04-24T02:53:26;97830.25;;;11.93;100.00
9307;BME280;4691;47.612;7.610;2023-04-24T02:55:51;97810.00;;;11.81;100.00
9307;BME280;4691;47.612;7.610;2023-04-24T02:58:16;97791.19;;;11.72;100.00
9307;BME280;4691;47.612;7.610;2023-04-24T03:00:42;97792.47;;;11.68;100.00
9307;BME280;4691;47.612;7.610;2023-04-24T03:03:08;97774.66;;;11.59;100.00
9307;BME280;4691;47.612;7.610;2023-04-24T03:05:33;97755.22;;;11.57;100.00
9307;BME280;4691;47.612;7.610;2023-04-24T03:07:59;97760.25;;;11.60;100.00
9307;BME280;4691;47.612;7.610;2023-04-24T03:10:24;97756.97;;;11.48;100.00
9307;BME280;4691;47.612;7.610;2023-04-24T03:12:52;97746.03;;;11.42;100.00
9307;BME280;4691;47.612;7.610;2023-04-24T03:15:20;97717.69;;;11.21;100.00
9307;BME280;4691;47.612;7.610;2023-04-24T03:17:45;97685.03;;;11.00;100.00
9307;BME280;4691;47.612;7.610;2023-04-24T03:20:12;97650.84;;;10.94;100.00
9307;BME280;4691;47.612;7.610;2023-04-24T03:22:37;97586.72;;;10.84;100.00
9307;BME280;4691;47.612;7.610;2023-04-24T03:25:03;97565.13;;;10.77;100.00
9307;BME280;4691;47.612;7.610;2023-04-24T03:27:30;97535.69;;;10.77;100.00
9307;BME280;4691;47.612;7.610;2023-04-24T03:33:17;97487.03;;;10.56;100.00
9307;BME280;4691;47.612;7.610;2023-04-24T03:35:42;97475.59;;;10.45;100.00
9307;BME280;4691;47.612;7.610;2023-04-24T03:38:08;97450.28;;;10.40;100.00
9307;BME280;4691;47.612;7.610;2023-04-24T03:40:33;97458.78;;;10.35;100.00
9307;BME280;4691;47.612;7.610;2023-04-24T03:42:59;97433.41;;;10.39;100.00
9307;BME280;4691;47.612;7.610;2023-04-24T03:45:24;97434.59;;;10.27;100.00
9307;BME280;4691;47.612;7.610;2023-04-24T03:47:49;97424.38;;;10.22;100.00
9307;BME280;4691;47.612;7.610;2023-04-24T03:50:15;97396.16;;;10.20;100.00
9307;BME280;4691;47.612;7.610;2023-04-24T03:52:40;97393.38;;;10.12;100.00
9307;BME280;4691;47.612;7.610;2023-04-24T03:55:06;97384.69;;;10.10;100.00
9307;BME280;4691;47.612;7.610;2023-04-24T03:57:31;97379.63;;;10.07;100.00
9307;BME280;4691;47.612;7.610;2023-04-24T03:59:57;97372.94;;;10.02;100.00
9307;BME280;4691;47.612;7.610;2023-04-24T04:02:22;97372.94;;;10.02;100.00
9307;BME280;4691;47.612;7.610;2023-04-24T04:04:47;97373.38;;;9.98;100.00
9307;BME280;4691;47.612;7.610;2023-04-24T04:07:13;97381.38;;;9.98;100.00
9307;BME280;4691;47.612;7.610;2023-04-24T04:09:38;97372.75;;;9.86;100.00
9307;BME280;4691;47.612;7.610;2023-04-24T04:12:04;97386.09;;;9.86;100.00
9307;BME280;4691;47.612;7.610;2023-04-24T04:14:29;97389.38;;;9.80;100.00
9307;BME280;4691;47.612;7.610;2023-04-24T04:16:54;97400.03;;;9.80;100.00
9307;BME280;4691;47.612;7.610;2023-04-24T04:19:20;97411.03;;;9.77;100.00
9307;BME280;4691;47.612;7.610;2023-04-24T04:21:45;97434.75;;;9.80;100.00
9307;BME280;4691;47.612;7.610;2023-04-24T04:24:11;97464.41;;;9.77;100.00
9307;BME280;4691;47.612;7.610;2023-04-24T04:26:37;97491.09;;;9.77;100.00
9307;BME280;4691;47.612;7.610;2023-04-24T04:29:03;97511.03;;;9.82;100.00
9307;BME280;4691;47.612;7.610;2023-04-24T04:31:29;97519.19;;;9.81;100.00
9307;BME280;4691;47.612;7.610;2023-04-24T04:33:55;97529.84;;;9.81;100.00
9307;BME280;4691;47.612;7.610;2023-04-24T04:36:20;97533.94;;;9.85;100.00
9307;BME280;4691;47.612;7.610;2023-04-24T04:38:45;97532.09;;;9.86;100.00
9307;BME280;4691;47.612;7.610;2023-04-24T04:41:11;97529.59;;;9.84;100.00
9307;BME280;4691;47.612;7.610;2023-04-24T04:43:36;97544.19;;;9.90;100.00
9307;BME280;4691;47.612;7.610;2023-04-24T04:46:03;97553.41;;;9.95;100.00
9307;BME280;4691;47.612;7.610;2023-04-24T04:48:28;97559.59;;;9.96;100.00
9307;BME280;4691;47.612;7.610;2023-04-24T04:50:53;97583.50;;;9.97;100.00
9307;BME280;4691;47.612;7.610;2023-04-24T04:53:19;97572.81;;;9.97;100.00
9307;BME280;4691;47.612;7.610;2023-04-24T04:55:44;97583.31;;;9.99;100.00
9307;BME280;4691;47.612;7.610;2023-04-24T04:58:11;97593.59;;;10.03;100.00
9307;BME280;4691;47.612;7.610;2023-04-24T05:00:36;97598.63;;;10.07;100.00
9307;BME280;4691;47.612;7.610;2023-04-24T05:03:02;97597.97;;;10.05;100.00
9307;BME280;4691;47.612;7.610;2023-04-24T05:05:28;97611.56;;;10.01;100.00
9307;BME280;4691;47.612;7.610;2023-04-24T05:07:53;97610.59;;;10.02;100.00
9307;BME280;4691;47.612;7.610;2023-04-24T05:10:18;97605.38;;;10.11;100.00
9307;BME280;4691;47.612;7.610;2023-04-24T05:12:44;97619.56;;;10.11;100.00
9307;BME280;4691;47.612;7.610;2023-04-24T05:15:09;97625.34;;;10.07;100.00
9307;BME280;4691;47.612;7.610;2023-04-24T05:17:35;97631.38;;;10.09;100.00
9307;BME280;4691;47.612;7.610;2023-04-24T05:20:02;97623.13;;;10.02;100.00
9307;BME280;4691;47.612;7.610;2023-04-24T05:22:30;97612.44;;;10.02;100.00
9307;BME280;4691;47.612;7.610;2023-04-24T05:24:56;97599.53;;;9.97;100.00
9307;BME280;4691;47.612;7.610;2023-04-24T05:27:21;97607.81;;;9.94;100.00
9307;BME280;4691;47.612;7.610;2023-04-24T05:29:46;97597.81;;;9.96;100.00
9307;BME280;4691;47.612;7.610;2023-04-24T05:32:12;97593.19;;;9.98;100.00
9307;BME280;4691;47.612;7.610;2023-04-24T05:34:37;97602.88;;;9.99;100.00
9307;BME280;4691;47.612;7.610;2023-04-24T05:37:02;97605.97;;;10.05;100.00
9307;BME280;4691;47.612;7.610;2023-04-24T05:39:28;97612.69;;;10.09;100.00
9307;BME280;4691;47.612;7.610;2023-04-24T05:41:53;97620.00;;;10.07;100.00
9307;BME280;4691;47.612;7.610;2023-04-24T05:44:19;97639.78;;;10.14;100.00
9307;BME280;4691;47.612;7.610;2023-04-24T05:46:44;97661.44;;;10.30;100.00
9307;BME280;4691;47.612;7.610;2023-04-24T05:49:09;97664.91;;;10.40;100.00
9307;BME280;4691;47.612;7.610;2023-04-24T05:51:35;97673.91;;;10.39;100.00
9307;BME280;4691;47.612;7.610;2023-04-24T05:54:00;97674.47;;;10.43;100.00
9307;BME280;4691;47.612;7.610;2023-04-24T05:56:26;97669.38;;;10.50;100.00
9307;BME280;4691;47.612;7.610;2023-04-24T05:58:51;97678.19;;;10.60;100.00
9307;BME280;4691;47.612;7.610;2023-04-24T06:01:17;97678.88;;;10.62;100.00
9307;BME280;4691;47.612;7.610;2023-04-24T06:03:43;97676.31;;;10.70;100.00
9307;BME280;4691;47.612;7.610;2023-04-24T06:06:08;97687.84;;;10.71;100.00
9307;BME280;4691;47.612;7.610;2023-04-24T06:08:36;97687.31;;;10.67;100.00
9307;BME280;4691;47.612;7.610;2023-04-24T06:11:02;97750.03;;;10.73;100.00
9307;BME280;4691;47.612;7.610;2023-04-24T06:13:27;97816.75;;;10.74;100.00
9307;BME280;4691;47.612;7.610;2023-04-24T06:15:53;97897.47;;;9.90;100.00
9307;BME280;4691;47.612;7.610;2023-04-24T06:18:18;97875.25;;;8.99;100.00
9307;BME280;4691;47.612;7.610;2023-04-24T06:20:45;97754.41;;;8.58;100.00
9307;BME280;4691;47.612;7.610;2023-04-24T06:23:10;97701.91;;;8.49;100.00
9307;BME280;4691;47.612;7.610;2023-04-24T06:25:38;97645.97;;;8.49;100.00
9307;BME280;4691;47.612;7.610;2023-04-24T06:28:04;97623.22;;;8.45;100.00
9307;BME280;4691;47.612;7.610;2023-04-24T06:30:30;97637.25;;;8.47;100.00
9307;BME280;4691;47.612;7.610;2023-04-24T06:32:55;97622.81;;;8.49;100.00
9307;BME280;4691;47.612;7.610;2023-04-24T06:35:20;97616.81;;;8.57;100.00
9307;BME280;4691;47.612;7.610;2023-04-24T06:37:46;97615.00;;;8.67;100.00
9307;BME280;4691;47.612;7.610;2023-04-24T06:40:11;97610.69;;;8.86;100.00
9307;BME280;4691;47.612;7.610;2023-04-24T06:42:37;97617.88;;;8.95;100.00
9307;BME280;4691;47.612;7.610;2023-04-24T06:45:03;97628.22;;;8.88;100.00
9307;BME280;4691;47.612;7.610;2023-04-24T06:47:29;97677.88;;;8.80;100.00
9307;BME280;4691;47.612;7.610;2023-04-24T06:49:54;97727.53;;;8.71;100.00
9307;BME280;4691;47.612;7.610;2023-04-24T06:52:20;97743.81;;;8.78;100.00
9307;BME280;4691;47.612;7.610;2023-04-24T06:54:45;97758.28;;;8.85;100.00
9307;BME280;4691;47.612;7.610;2023-04-24T06:57:11;97771.06;;;8.91;100.00
9307;BME280;4691;47.612;7.610;2023-04-24T06:59:37;97780.63;;;8.93;100.00
9307;BME280;4691;47.612;7.610;2023-04-24T07:02:02;97845.22;;;8.97;100.00
9307;BME280;4691;47.612;7.610;2023-04-24T07:04:28;97858.44;;;9.08;100.00
9307;BME280;4691;47.612;7.610;2023-04-24T07:06:53;97905.69;;;9.27;100.00
9307;BME280;4691;47.612;7.610;2023-04-24T07:09:23;97923.44;;;9.38;100.00
9307;BME280;4691;47.612;7.610;2023-04-24T07:11:50;97945.34;;;9.42;100.00
9307;BME280;4691;47.612;7.610;2023-04-24T07:14:16;97946.81;;;9.55;100.00
9307;BME280;4691;47.612;7.610;2023-04-24T07:16:42;97956.34;;;9.48;100.00
9307;BME280;4691;47.612;7.610;2023-04-24T07:19:08;97974.03;;;9.49;100.00
9307;BME280;4691;47.612;7.610;2023-04-24T07:21:33;97976.97;;;9.46;100.00
9307;BME280;4691;47.612;7.610;2023-04-24T07:23:59;97959.09;;;9.37;100.00
9307;BME280;4691;47.612;7.610;2023-04-24T07:26:26;97952.06;;;9.36;100.00
9307;BME280;4691;47.612;7.610;2023-04-24T07:28:51;97951.25;;;9.45;100.00
9307;BME280;4691;47.612;7.610;2023-04-24T07:31:16;97945.19;;;9.64;100.00
9307;BME280;4691;47.612;7.610;2023-04-24T07:33:42;98020.22;;;9.71;100.00
9307;BME280;4691;47.612;7.610;2023-04-24T07:36:07;98036.94;;;10.03;100.00
9307;BME280;4691;47.612;7.610;2023-04-24T07:38:32;98055.34;;;10.37;100.00
9307;BME280;4691;47.612;7.610;2023-04-24T07:40:58;98087.16;;;10.40;100.00
9307;BME280;4691;47.612;7.610;2023-04-24T07:43:23;98124.66;;;10.29;100.00
9307;BME280;4691;47.612;7.610;2023-04-24T07:45:51;98133.19;;;10.23;100.00
9307;BME280;4691;47.612;7.610;2023-04-24T07:48:17;98152.84;;;10.22;100.00
9307;BME280;4691;47.612;7.610;2023-04-24T07:50:44;98176.59;;;10.36;100.00
9307;BME280;4691;47.612;7.610;2023-04-24T07:53:09;98209.28;;;10.50;100.00
9307;BME280;4691;47.612;7.610;2023-04-24T07:55:35;98236.34;;;10.66;100.00
9307;BME280;4691;47.612;7.610;2023-04-24T07:58:00;98278.25;;;10.56;100.00
9307;BME280;4691;47.612;7.610;2023-04-24T08:00:25;98285.78;;;10.41;100.00
9307;BME280;4691;47.612;7.610;2023-04-24T08:02:51;98287.47;;;10.42;100.00
9307;BME280;4691;47.612;7.610;2023-04-24T08:05:16;98310.66;;;10.41;100.00
9307;BME280;4691;47.612;7.610;2023-04-24T08:07:42;98303.50;;;10.42;100.00
9307;BME280;4691;47.612;7.610;2023-04-24T08:10:09;98309.16;;;10.49;100.00
9307;BME280;4691;47.612;7.610;2023-04-24T08:12:35;98326.25;;;10.57;100.00
9307;BME280;4691;47.612;7.610;2023-04-24T08:15:00;98318.56;;;10.64;100.00
9307;BME280;4691;47.612;7.610;2023-04-24T08:17:26;98336.72;;;10.70;100.00
9307;BME280;4691;47.612;7.610;2023-04-24T08:19:51;98350.94;;;10.71;100.00
9307;BME280;4691;47.612;7.610;2023-04-24T08:22:18;98348.16;;;10.72;100.00
9307;BME280;4691;47.612;7.610;2023-04-24T08:24:43;98348.22;;;10.92;100.00
9307;BME280;4691;47.612;7.610;2023-04-24T08:27:09;98342.44;;;11.17;100.00
9307;BME280;4691;47.612;7.610;2023-04-24T08:29:35;98359.69;;;11.34;100.00
9307;BME280;4691;47.612;7.610;2023-04-24T08:32:00;98365.44;;;11.29;100.00
9307;BME280;4691;47.612;7.610;2023-04-24T08:34:26;98385.91;;;11.30;100.00
9307;BME280;4691;47.612;7.610;2023-04-24T08:36:51;98376.03;;;11.31;100.00
9307;BME280;4691;47.612;7.610;2023-04-24T08:39:17;98385.19;;;11.28;100.00
9307;BME280;4691;47.612;7.610;2023-04-24T08:41:43;98386.06;;;11.39;100.00
9307;BME280;4691;47.612;7.610;2023-04-24T08:44:09;98383.66;;;11.36;100.00
9307;BME280;4691;47.612;7.610;2023-04-24T08:46:35;98394.13;;;11.58;100.00
9307;BME280;4691;47.612;7.610;2023-04-24T08:49:01;98404.41;;;11.93;100.00
9307;BME280;4691;47.612;7.610;2023-04-24T08:51:27;98406.97;;;12.14;100.00
9307;BME280;4691;47.612;7.610;2023-04-24T08:53:54;98413.19;;;12.25;100.00
9307;BME280;4691;47.612;7.610;2023-04-24T08:56:21;98404.63;;;12.31;100.00
9307;BME280;4691;47.612;7.610;2023-04-24T08:58:49;98413.75;;;12.38;100.00
9307;BME280;4691;47.612;7.610;2023-04-24T09:01:15;98423.63;;;12.28;100.00
9307;BME280;4691;47.612;7.610;2023-04-24T09:03:40;98422.53;;;12.50;100.00
9307;BME280;4691;47.612;7.610;2023-04-24T09:06:06;98428.16;;;12.76;100.00
9307;BME280;4691;47.612;7.610;2023-04-24T09:08:33;98440.84;;;12.83;100.00
9307;BME280;4691;47.612;7.610;2023-04-24T09:10:58;98432.50;;;12.96;100.00
9307;BME280;4691;47.612;7.610;2023-04-24T09:13:27;98429.00;;;12.76;100.00
9307;BME280;4691;47.612;7.610;2023-04-24T09:15:52;98446.25;;;12.54;100.00
9307;BME280;4691;47.612;7.610;2023-04-24T09:18:19;98439.72;;;12.28;100.00
9307;BME280;4691;47.612;7.610;2023-04-24T09:20:58;98461.31;;;12.94;100.00
9307;BME280;4691;47.612;7.610;2023-04-24T09:23:27;98440.38;;;13.27;100.00
9307;BME280;4691;47.612;7.610;2023-04-24T09:25:55;98452.31;;;13.52;100.00
9307;BME280;4691;47.612;7.610;2023-04-24T09:28:25;98440.13;;;13.58;100.00
9307;BME280;4691;47.612;7.610;2023-04-24T09:31:06;98464.28;;;13.11;100.00
9307;BME280;4691;47.612;7.610;2023-04-24T09:33:32;98477.72;;;12.91;100.00
9307;BME280;4691;47.612;7.610;2023-04-24T09:35:57;98466.69;;;12.55;100.00
9307;BME280;4691;47.612;7.610;2023-04-24T09:38:34;98459.78;;;12.43;100.00
9307;BME280;4691;47.612;7.610;2023-04-24T09:41:02;98460.63;;;12.92;100.00
9307;BME280;4691;47.612;7.610;2023-04-24T09:43:28;98466.28;;;12.60;100.00
9307;BME280;4691;47.612;7.610;2023-04-24T09:45:57;98450.38;;;13.35;100.00
9307;BME280;4691;47.612;7.610;2023-04-24T09:48:31;98460.44;;;14.43;100.00
9307;BME280;4691;47.612;7.610;2023-04-24T09:50:57;98461.81;;;14.29;100.00
9307;BME280;4691;47.612;7.610;2023-04-24T09:53:24;98461.53;;;14.05;100.00
9307;BME280;4691;47.612;7.610;2023-04-24T09:55:50;98465.13;;;13.96;100.00
9307;BME280;4691;47.612;7.610;2023-04-24T09:58:15;98467.91;;;13.76;100.00
9307;BME280;4691;47.612;7.610;2023-04-24T10:00:40;98466.00;;;14.77;100.00
9307;BME280;4691;47.612;7.610;2023-04-24T10:03:06;98445.91;;;15.34;100.00
9307;BME280;4691;47.612;7.610;2023-04-24T10:05:33;98438.09;;;16.42;100.00
9307;BME280;4691;47.612;7.610;2023-04-24T10:08:03;98444.88;;;15.95;100.00
9307;BME280;4691;47.612;7.610;2023-04-24T10:10:30;98468.16;;;14.10;100.00
9307;BME280;4691;47.612;7.610;2023-04-24T10:12:56;98484.34;;;14.01;100.00
9307;BME280;4691;47.612;7.610;2023-04-24T10:15:22;98454.06;;;16.19;100.00
9307;BME280;4691;47.612;7.610;2023-04-24T10:17:51;98443.59;;;18.50;100.00
9307;BME280;4691;47.612;7.610;2023-04-24T10:20:22;98467.03;;;16.90;100.00
9307;BME280;4691;47.612;7.610;2023-04-24T10:22:49;98490.72;;;15.17;100.00
9307;BME280;4691;47.612;7.610;2023-04-24T10:25:21;98496.44;;;15.14;100.00
9307;BME280;4691;47.612;7.610;2023-04-24T10:27:47;98496.97;;;14.81;100.00
9307;BME280;4691;47.612;7.610;2023-04-24T10:30:13;98507.31;;;14.41;100.00
9307;BME280;4691;47.612;7.610;2023-04-24T10:32:39;98506.13;;;14.25;100.00
9307;BME280;4691;47.612;7.610;2023-04-24T10:35:06;98517.41;;;14.11;100.00
9307;BME280;4691;47.612;7.610;2023-04-24T10:37:37;98507.28;;;13.95;100.00
9307;BME280;4691;47.612;7.610;2023-04-24T10:40:03;98506.47;;;14.12;100.00
9307;BME280;4691;47.612;7.610;2023-04-24T10:42:29;98498.66;;;13.91;100.00
9307;BME280;4691;47.612;7.610;2023-04-24T10:44:54;98515.97;;;13.79;100.00
9307;BME280;4691;47.612;7.610;2023-04-24T10:47:25;98484.44;;;15.60;100.00
9307;BME280;4691;47.612;7.610;2023-04-24T10:49:51;98465.59;;;16.53;100.00
9307;BME280;4691;47.612;7.610;2023-04-24T10:52:17;98476.94;;;16.06;100.00
9307;BME280;4691;47.612;7.610;2023-04-24T10:54:46;98456.88;;;16.92;100.00
9307;BME280;4691;47.612;7.610;2023-04-24T10:59:52;98467.63;;;15.66;100.00
9307;BME280;4691;47.612;7.610;2023-04-24T11:02:39;98485.38;;;15.51;100.00
9307;BME280;4691;47.612;7.610;2023-04-24T11:05:06;98463.84;;;16.28;100.00
9307;BME280;4691;47.612;7.610;2023-04-24T11:10:41;98467.34;;;17.20;100.00
9307;BME280;4691;47.612;7.610;2023-04-24T11:13:08;98475.00;;;16.33;100.00
9307;BME280;4691;47.612;7.610;2023-04-24T11:15:34;98495.88;;;15.80;100.00
9307;BME280;4691;47.612;7.610;2023-04-24T11:17:59;98504.28;;;15.33;100.00
9307;BME280;4691;47.612;7.610;2023-04-24T11:20:25;98500.53;;;15.44;100.00
9307;BME280;4691;47.612;7.610;2023-04-24T11:22:53;98496.16;;;16.03;100.00
9307;BME280;4691;47.612;7.610;2023-04-24T11:25:23;98497.84;;;16.04;100.00
9307;BME280;4691;47.612;7.610;2023-04-24T11:27:49;98484.44;;;16.29;100.00
9307;BME280;4691;47.612;7.610;2023-04-24T11:30:19;98486.78;;;16.99;100.00
9307;BME280;4691;47.612;7.610;2023-04-24T11:32:50;98466.91;;;18.51;100.00
9307;BME280;4691;47.612;7.610;2023-04-24T11:35:18;98420.53;;;20.34;100.00
9307;BME280;4691;47.612;7.610;2023-04-24T11:37:52;98459.41;;;17.99;100.00
9307;BME280;4691;47.612;7.610;2023-04-24T11:40:20;98498.81;;;16.38;100.00
9307;BME280;4691;47.612;7.610;2023-04-24T11:42:47;98500.44;;;17.30;100.00
9307;BME280;4691;47.612;7.610;2023-04-24T11:45:14;98462.16;;;17.74;100.00
9307;BME280;4691;47.612;7.610;2023-04-24T11:47:41;98493.63;;;16.52;100.00
9307;BME280;4691;47.612;7.610;2023-04-24T11:50:12;98518.38;;;15.45;100.00
9307;BME280;4691;47.612;7.610;2023-04-24T11:52:43;98526.50;;;15.27;100.00
9307;BME280;4691;47.612;7.610;2023-04-24T11:57:42;98532.13;;;14.62;100.00
9307;BME280;4691;47.612;7.610;2023-04-24T12:00:15;98524.19;;;14.33;100.00
9307;BME280;4691;47.612;7.610;2023-04-24T12:02:41;98521.97;;;14.01;100.00
9307;BME280;4691;47.612;7.610;2023-04-24T12:05:07;98539.34;;;13.69;100.00
9307;BME280;4691;47.612;7.610;2023-04-24T12:07:40;98554.28;;;13.34;100.00
9307;BME280;4691;47.612;7.610;2023-04-24T12:10:08;98562.75;;;13.39;100.00
9307;BME280;4691;47.612;7.610;2023-04-24T12:12:34;98568.25;;;13.18;100.00
9307;BME280;4691;47.612;7.610;2023-04-24T12:15:01;98548.03;;;13.43;100.00
9307;BME280;4691;47.612;7.610;2023-04-24T12:17:31;98543.38;;;13.92;100.00
9307;BME280;4691;47.612;7.610;2023-04-24T12:19:58;98538.25;;;15.44;100.00
9307;BME280;4691;47.612;7.610;2023-04-24T12:22:25;98497.94;;;18.09;100.00
9307;BME280;4691;47.612;7.610;2023-04-24T12:27:32;98450.66;;;18.51;100.00
9307;BME280;4691;47.612;7.610;2023-04-24T12:30:03;98465.13;;;18.66;100.00
9307;BME280;4691;47.612;7.610;2023-04-24T12:32:29;98460.53;;;18.44;100.00
9307;BME280;4691;47.612;7.610;2023-04-24T12:34:55;98452.03;;;19.01;100.00
9307;BME280;4691;47.612;7.610;2023-04-24T12:37:22;98467.09;;;18.81;100.00
9307;BME280;4691;47.612;7.610;2023-04-24T12:40:08;98500.44;;;17.30;100.00
9307;BME280;4691;47.612;7.610;2023-04-24T12:42:35;98487.28;;;16.86;100.00
9307;BME280;4691;47.612;7.610;2023-04-24T12:45:03;98477.47;;;17.34;100.00
9307;BME280;4691;47.612;7.610;2023-04-24T12:47:32;98472.78;;;16.95;100.00
9307;BME280;4691;47.612;7.610;2023-04-24T12:49:58;98474.13;;;16.91;100.00
9307;BME280;4691;47.612;7.610;2023-04-24T12:52:25;98488.91;;;16.63;100.00
9307;BME280;4691;47.612;7.610;2023-04-24T12:54:53;98468.41;;;16.19;100.00
9307;BME280;4691;47.612;7.610;2023-04-24T12:57:19;98463.53;;;16.31;100.00
9307;BME280;4691;47.612;7.610;2023-04-24T12:59:48;98467.75;;;16.33;100.00
9307;BME280;4691;47.612;7.610;2023-04-24T13:02:13;98469.00;;;16.72;100.00
9307;BME280;4691;47.612;7.610;2023-04-24T13:04:39;98445.31;;;16.33;100.00
9307;BME280;4691;47.612;7.610;2023-04-24T13:07:07;98462.63;;;17.14;100.00
9307;BME280;4691;47.612;7.610;2023-04-24T13:09:34;98417.84;;;17.92;100.00
9307;BME280;4691;47.612;7.610;2023-04-24T13:12:00;98393.97;;;18.81;100.00
9307;BME280;4691;47.612;7.610;2023-04-24T13:14:28;98408.91;;;18.22;100.00
9307;BME280;4691;47.612;7.610;2023-04-24T13:16:53;98432.94;;;17.14;100.00
9307;BME280;4691;47.612;7.610;2023-04-24T13:19:19;98445.38;;;18.35;100.00
9307;BME280;4691;47.612;7.610;2023-04-24T13:21:44;98347.47;;;19.36;100.00
9307;BME280;4691;47.612;7.610;2023-04-24T13:24:10;98405.69;;;18.50;100.00